createdAt,value
2022-10-30T00:00:42.481Z,12.42
2022-10-30T00:03:16.394Z,12.39
2022-10-30T00:05:45.208Z,12.32
2022-10-30T00:08:13.768Z,12.29
2022-10-30T00:10:41.160Z,12.27
2022-10-30T00:13:08.482Z,12.26
2022-10-30T00:15:35.724Z,12.24
2022-10-30T00:18:02.461Z,12.19
2022-10-30T00:20:29.268Z,12.15
2022-10-30T00:22:56.290Z,12.14
2022-10-30T00:25:23.264Z,12.13
2022-10-30T00:27:49.784Z,12.09
2022-10-30T00:30:16.518Z,12.03
2022-10-30T00:32:43.901Z,11.97
2022-10-30T00:35:10.902Z,11.93
2022-10-30T00:37:37.412Z,11.92
2022-10-30T00:40:05.181Z,11.90
2022-10-30T00:42:32.573Z,11.88
2022-10-30T00:44:59.317Z,11.83
2022-10-30T00:47:39.905Z,11.81
2022-10-30T00:50:12.498Z,11.79
2022-10-30T00:52:53.890Z,11.75
2022-10-30T00:55:26.843Z,11.73
2022-10-30T00:57:54.021Z,11.69
2022-10-30T01:00:24.158Z,11.68
2022-10-30T01:02:52.514Z,11.68
2022-10-30T01:05:22.478Z,11.68
2022-10-30T01:07:49.029Z,11.67
2022-10-30T01:10:16.501Z,11.67
2022-10-30T01:12:44.720Z,11.67
2022-10-30T01:15:13.183Z,11.70
2022-10-30T01:18:16.613Z,11.68
2022-10-30T01:20:52.380Z,11.68
2022-10-30T01:23:37.231Z,11.68
2022-10-30T01:26:38.592Z,11.65
2022-10-30T01:29:26.673Z,11.66
2022-10-30T01:32:05.412Z,11.66
2022-10-30T01:34:49.890Z,11.65
2022-10-30T01:37:25.271Z,11.64
2022-10-30T01:39:51.796Z,11.62
2022-10-30T01:42:43.752Z,11.62
2022-10-30T01:45:31.513Z,11.61
2022-10-30T01:48:03.918Z,11.61
2022-10-30T01:51:08.306Z,11.60
2022-10-30T01:54:08.089Z,11.58
2022-10-30T01:56:40.379Z,11.56
2022-10-30T01:59:43.086Z,11.54
2022-10-30T02:02:10.687Z,11.51
2022-10-30T02:04:38.190Z,11.50
2022-10-30T02:07:04.757Z,11.50
2022-10-30T02:09:31.787Z,11.47
2022-10-30T02:11:59.720Z,11.44
2022-10-30T02:14:40.299Z,11.40
2022-10-30T02:17:08.134Z,11.39
2022-10-30T02:19:35.497Z,11.37
2022-10-30T02:22:02.191Z,11.37
2022-10-30T02:24:30.326Z,11.35
2022-10-30T02:26:56.889Z,11.32
2022-10-30T02:29:23.671Z,11.29
2022-10-30T02:31:50.514Z,11.29
2022-10-30T02:34:17.374Z,11.27
2022-10-30T02:36:43.913Z,11.27
2022-10-30T02:39:10.441Z,11.23
2022-10-30T02:41:37.115Z,11.23
2022-10-30T02:44:04.949Z,11.21
2022-10-30T02:46:31.497Z,11.19
2022-10-30T02:48:58.033Z,11.17
2022-10-30T02:51:24.622Z,11.13
2022-10-30T02:53:51.190Z,11.12
2022-10-30T02:56:17.994Z,11.11
2022-10-30T02:58:44.494Z,11.06
2022-10-30T03:01:14.639Z,11.03
2022-10-30T03:03:41.995Z,11.01
2022-10-30T03:06:11.106Z,11.01
2022-10-30T03:08:37.704Z,10.98
2022-10-30T03:11:12.874Z,10.94
2022-10-30T03:13:40.988Z,10.92
2022-10-30T03:16:10.981Z,10.91
2022-10-30T03:18:37.886Z,10.90
2022-10-30T03:21:06.567Z,10.88
2022-10-30T03:23:33.577Z,10.86
2022-10-30T03:26:00.424Z,10.88
2022-10-30T03:28:29.062Z,10.86
2022-10-30T03:31:22.013Z,10.86
2022-10-30T03:33:48.565Z,10.85
2022-10-30T03:36:15.596Z,10.86
2022-10-30T03:38:42.893Z,10.85
2022-10-30T03:41:10.105Z,10.85
2022-10-30T03:43:36.766Z,10.87
2022-10-30T03:46:03.522Z,10.89
2022-10-30T03:48:30.025Z,10.93
2022-10-30T03:50:58.903Z,10.96
2022-10-30T03:53:26.556Z,11.00
2022-10-30T03:55:56.763Z,11.05
2022-10-30T03:58:23.474Z,11.10
2022-10-30T04:00:50.029Z,11.12
2022-10-30T04:03:16.536Z,11.15
2022-10-30T04:05:43.121Z,11.18
2022-10-30T04:08:13.072Z,11.20
2022-10-30T04:10:44.395Z,11.23
2022-10-30T04:13:12.728Z,11.24
2022-10-30T04:15:39.515Z,11.27
2022-10-30T04:18:06.404Z,11.28
2022-10-30T04:20:33.072Z,11.27
2022-10-30T04:23:04.801Z,11.25
2022-10-30T04:25:33.119Z,11.23
2022-10-30T04:28:00.910Z,11.21
2022-10-30T04:30:27.797Z,11.21
2022-10-30T04:32:56.567Z,11.19
2022-10-30T04:35:26.836Z,11.17
2022-10-30T04:37:54.963Z,11.17
2022-10-30T04:40:23.498Z,11.16
2022-10-30T04:42:50.639Z,11.16
2022-10-30T04:45:18.079Z,11.19
2022-10-30T04:47:45.437Z,11.19
2022-10-30T04:50:12.539Z,11.20
2022-10-30T04:52:39.516Z,11.22
2022-10-30T04:55:07.244Z,11.24
2022-10-30T04:57:34.480Z,11.25
2022-10-30T05:00:01.012Z,11.27
2022-10-30T05:02:27.609Z,11.28
2022-10-30T05:04:54.449Z,11.33
2022-10-30T05:07:21.026Z,11.35
2022-10-30T05:09:47.563Z,11.38
2022-10-30T05:12:14.185Z,11.40
2022-10-30T05:14:40.671Z,11.42
2022-10-30T05:17:07.193Z,11.45
2022-10-30T05:19:33.746Z,11.48
2022-10-30T05:22:00.487Z,11.50
2022-10-30T05:24:26.936Z,11.51
2022-10-30T05:26:53.663Z,11.53
2022-10-30T05:29:20.140Z,11.52
2022-10-30T05:31:46.746Z,11.51
2022-10-30T05:34:13.256Z,11.50
2022-10-30T05:36:40.466Z,11.49
2022-10-30T05:39:07.326Z,11.47
2022-10-30T05:41:34.339Z,11.46
2022-10-30T05:44:00.904Z,11.45
2022-10-30T05:46:27.435Z,11.43
2022-10-30T05:48:53.926Z,11.40
2022-10-30T05:51:20.508Z,11.39
2022-10-30T05:53:49.915Z,11.40
2022-10-30T05:56:16.485Z,11.40
2022-10-30T05:58:43.008Z,11.38
2022-10-30T06:01:09.654Z,11.35
2022-10-30T06:03:36.215Z,11.37
2022-10-30T06:06:02.780Z,11.33
2022-10-30T06:08:29.272Z,11.31
2022-10-30T06:10:55.999Z,11.27
2022-10-30T06:13:22.609Z,11.26
2022-10-30T06:15:49.238Z,11.23
2022-10-30T06:18:15.787Z,11.22
2022-10-30T06:20:42.336Z,11.19
2022-10-30T06:23:10.257Z,11.17
2022-10-30T06:25:41.142Z,11.15
2022-10-30T06:28:10.279Z,11.14
2022-10-30T06:30:36.810Z,11.13
2022-10-30T06:33:05.485Z,11.10
2022-10-30T06:35:32.033Z,11.08
2022-10-30T06:38:00.387Z,11.09
2022-10-30T06:40:30.285Z,11.09
2022-10-30T06:42:57.784Z,11.09
2022-10-30T06:45:25.057Z,11.09
2022-10-30T06:47:52.273Z,11.10
2022-10-30T06:50:20.589Z,11.09
2022-10-30T06:52:48.265Z,11.06
2022-10-30T06:55:14.972Z,11.01
2022-10-30T06:57:41.951Z,11.02
2022-10-30T07:00:09.816Z,11.01
2022-10-30T07:02:36.400Z,10.99
2022-10-30T07:05:03.147Z,11.00
2022-10-30T07:07:30.092Z,11.01
2022-10-30T07:09:56.660Z,11.02
2022-10-30T07:12:23.601Z,11.03
2022-10-30T07:14:50.454Z,11.05
2022-10-30T07:17:17.251Z,11.05
2022-10-30T07:19:43.942Z,11.06
2022-10-30T07:22:10.856Z,11.05
2022-10-30T07:24:37.531Z,11.05
2022-10-30T07:27:04.457Z,11.07
2022-10-30T07:29:31.002Z,11.07
2022-10-30T07:32:02.702Z,11.11
2022-10-30T07:34:30.726Z,11.14
2022-10-30T07:36:57.609Z,11.18
2022-10-30T07:39:24.201Z,11.21
2022-10-30T07:41:50.823Z,11.23
2022-10-30T07:44:17.582Z,11.27
2022-10-30T07:46:44.265Z,11.34
2022-10-30T07:49:10.825Z,11.39
2022-10-30T07:51:37.380Z,11.45
2022-10-30T07:54:04.014Z,11.50
2022-10-30T07:56:30.552Z,11.53
2022-10-30T07:58:57.054Z,11.54
2022-10-30T08:01:23.690Z,11.60
2022-10-30T08:03:50.398Z,11.62
2022-10-30T08:06:20.019Z,11.65
2022-10-30T08:08:49.556Z,11.68
2022-10-30T08:11:16.103Z,11.73
2022-10-30T08:13:42.790Z,11.78
2022-10-30T08:16:09.389Z,11.83
2022-10-30T08:18:36.027Z,11.88
2022-10-30T08:21:02.614Z,11.93
2022-10-30T08:23:29.193Z,11.98
2022-10-30T08:26:00.423Z,12.04
2022-10-30T08:28:31.659Z,12.09
2022-10-30T08:31:00.666Z,12.15
2022-10-30T08:33:27.293Z,12.19
2022-10-30T08:35:56.793Z,12.24
2022-10-30T08:38:24.380Z,12.31
2022-10-30T08:40:51.675Z,12.36
2022-10-30T08:43:18.656Z,12.41
2022-10-30T08:45:45.185Z,12.46
2022-10-30T08:48:13.808Z,12.51
2022-10-30T08:50:40.729Z,12.58
2022-10-30T08:53:10.197Z,12.64
2022-10-30T08:55:36.829Z,12.72
2022-10-30T08:58:03.940Z,12.79
2022-10-30T09:00:30.837Z,12.84
2022-10-30T09:02:58.160Z,12.92
2022-10-30T09:05:25.045Z,13.00
2022-10-30T09:08:01.271Z,13.07
2022-10-30T09:10:28.765Z,13.13
2022-10-30T09:12:59.451Z,13.22
2022-10-30T09:15:26.805Z,13.28
2022-10-30T09:18:04.628Z,13.36
2022-10-30T09:20:31.848Z,13.47
2022-10-30T09:22:59.026Z,13.52
2022-10-30T09:25:26.147Z,13.62
2022-10-30T09:27:52.716Z,13.70
2022-10-30T09:30:19.356Z,13.77
2022-10-30T09:32:48.918Z,13.87
2022-10-30T09:35:17.687Z,13.95
2022-10-30T09:37:44.290Z,14.09
2022-10-30T09:40:19.438Z,14.12
2022-10-30T09:42:48.394Z,14.15
2022-10-30T09:45:34.507Z,14.19
2022-10-30T09:48:11.446Z,14.25
2022-10-30T09:51:09.794Z,14.35
2022-10-30T09:53:52.282Z,14.41
2022-10-30T09:56:29.744Z,14.47
2022-10-30T09:59:27.181Z,14.54
2022-10-30T10:02:27.113Z,14.66
2022-10-30T10:05:00.300Z,14.74
2022-10-30T10:07:37.721Z,14.82
2022-10-30T10:10:11.420Z,14.89
2022-10-30T10:12:43.059Z,14.98
2022-10-30T10:15:49.826Z,15.08
2022-10-30T10:18:25.520Z,15.16
2022-10-30T10:20:56.455Z,15.26
2022-10-30T10:23:39.157Z,15.39
2022-10-30T10:26:16.709Z,15.50
2022-10-30T10:28:45.944Z,15.61
2022-10-30T10:31:22.312Z,15.74
2022-10-30T10:34:09.058Z,15.86
2022-10-30T10:36:57.213Z,16.02
2022-10-30T10:39:26.866Z,16.08
2022-10-30T10:42:24.160Z,16.17
2022-10-30T10:45:35.276Z,16.28
2022-10-30T10:48:23.422Z,16.52
2022-10-30T10:50:55.651Z,16.63
2022-10-30T10:53:44.983Z,16.72
2022-10-30T10:56:13.772Z,16.80
2022-10-30T10:58:54.579Z,16.90
2022-10-30T11:01:30.260Z,17.05
2022-10-30T11:04:03.189Z,17.16
2022-10-30T11:06:36.231Z,17.26
2022-10-30T11:09:16.558Z,17.28
2022-10-30T11:11:47.145Z,17.37
2022-10-30T11:14:17.197Z,17.52
2022-10-30T11:17:17.759Z,17.59
2022-10-30T11:19:46.543Z,17.66
2022-10-30T11:22:37.240Z,17.70
2022-10-30T11:25:26.944Z,17.77
2022-10-30T11:27:57.718Z,17.88
2022-10-30T11:30:28.538Z,17.92
2022-10-30T11:32:59.095Z,18.06
2022-10-30T11:35:26.365Z,18.06
2022-10-30T11:38:13.704Z,18.16
2022-10-30T11:40:47.279Z,18.13
2022-10-30T11:43:18.933Z,18.18
2022-10-30T11:45:45.559Z,18.21
2022-10-30T11:48:34.016Z,18.30
2022-10-30T11:51:02.356Z,18.23
2022-10-30T11:53:35.215Z,18.23
2022-10-30T11:56:04.887Z,18.21
2022-10-30T11:58:37.874Z,18.21
2022-10-30T12:01:12.216Z,18.19
2022-10-30T12:03:40.833Z,18.19
2022-10-30T12:06:29.167Z,18.14
2022-10-30T12:09:04.672Z,18.13
2022-10-30T12:11:34.120Z,18.14
2022-10-30T12:14:01.024Z,18.11
2022-10-30T12:16:28.332Z,18.07
2022-10-30T12:19:02.023Z,18.10
2022-10-30T12:21:35.162Z,18.09
2022-10-30T12:24:07.014Z,18.09
2022-10-30T12:26:36.058Z,18.09
2022-10-30T12:29:07.098Z,18.08
2022-10-30T12:31:46.951Z,18.08
2022-10-30T12:34:40.362Z,18.11
2022-10-30T12:37:14.888Z,18.10
2022-10-30T12:39:57.013Z,18.10
2022-10-30T12:42:25.001Z,18.07
2022-10-30T12:45:05.737Z,18.06
2022-10-30T12:47:35.042Z,18.10
2022-10-30T12:50:17.619Z,18.10
2022-10-30T12:52:51.504Z,18.06
2022-10-30T12:55:24.268Z,18.06
2022-10-30T12:58:12.559Z,18.05
2022-10-30T13:00:50.473Z,18.08
2022-10-30T13:03:36.244Z,18.05
2022-10-30T13:06:24.040Z,18.05
2022-10-30T13:09:04.299Z,18.05
2022-10-30T13:11:43.300Z,18.04
2022-10-30T13:14:38.753Z,18.04
2022-10-30T13:17:11.083Z,18.10
2022-10-30T13:19:39.885Z,18.06
2022-10-30T13:22:15.675Z,18.05
2022-10-30T13:25:05.211Z,18.03
2022-10-30T13:27:43.829Z,18.00
2022-10-30T13:30:12.924Z,18.02
2022-10-30T13:32:53.555Z,18.00
2022-10-30T13:35:38.521Z,18.00
2022-10-30T13:38:23.176Z,17.98
2022-10-30T13:40:58.670Z,17.99
2022-10-30T13:43:32.814Z,17.97
2022-10-30T13:46:50.682Z,17.96
2022-10-30T13:49:46.175Z,17.94
2022-10-30T13:52:16.078Z,17.92
2022-10-30T13:55:04.638Z,17.92
2022-10-30T13:57:46.505Z,17.92
2022-10-30T14:00:43.242Z,17.88
2022-10-30T14:03:24.374Z,17.88
2022-10-30T14:05:58.741Z,17.87
2022-10-30T14:08:46.639Z,17.85
2022-10-30T14:11:14.381Z,17.85
2022-10-30T14:13:53.891Z,17.82
2022-10-30T14:16:43.777Z,17.79
2022-10-30T14:19:15.695Z,17.78
2022-10-30T14:21:43.836Z,17.77
2022-10-30T14:24:13.141Z,17.73
2022-10-30T14:26:49.950Z,17.70
2022-10-30T14:29:34.817Z,17.67
2022-10-30T14:32:13.200Z,17.66
2022-10-30T14:34:44.905Z,17.62
2022-10-30T14:37:12.967Z,17.59
2022-10-30T14:39:42.559Z,17.56
2022-10-30T14:42:23.464Z,17.52
2022-10-30T14:45:14.751Z,17.48
2022-10-30T14:47:57.465Z,17.42
2022-10-30T14:50:26.815Z,17.38
2022-10-30T14:53:11.214Z,17.33
2022-10-30T14:56:00.226Z,17.28
2022-10-30T14:58:29.566Z,17.20
2022-10-30T15:01:45.925Z,17.13
2022-10-30T15:04:27.673Z,17.05
2022-10-30T15:06:59.879Z,16.98
2022-10-30T15:09:56.315Z,16.91
2022-10-30T15:12:25.679Z,16.82
2022-10-30T15:14:59.350Z,16.76
2022-10-30T15:17:41.518Z,16.70
2022-10-30T15:20:15.950Z,16.65
2022-10-30T15:22:42.785Z,16.58
2022-10-30T15:25:33.587Z,16.52
2022-10-30T15:28:01.164Z,16.41
2022-10-30T15:30:28.369Z,16.33
2022-10-30T15:32:55.001Z,16.25
2022-10-30T15:35:24.573Z,16.17
2022-10-30T15:38:07.799Z,16.07
2022-10-30T15:40:36.196Z,16.01
2022-10-30T15:43:05.276Z,15.95
2022-10-30T15:45:44.474Z,15.86
2022-10-30T15:48:31.552Z,15.79
2022-10-30T15:51:04.077Z,15.71
2022-10-30T15:54:00.437Z,15.61
2022-10-30T15:56:44.376Z,15.54
2022-10-30T15:59:24.641Z,15.42
2022-10-30T16:01:54.871Z,15.34
2022-10-30T16:04:31.586Z,15.27
2022-10-30T16:07:00.932Z,15.18
2022-10-30T16:09:28.815Z,15.11
2022-10-30T16:11:58.400Z,15.03
2022-10-30T16:14:28.515Z,14.94
2022-10-30T16:16:59.345Z,14.88
2022-10-30T16:19:30.698Z,14.81
2022-10-30T16:21:58.877Z,14.73
2022-10-30T16:24:33.164Z,14.65
2022-10-30T16:27:26.103Z,14.72
2022-10-30T16:29:56.667Z,14.81
2022-10-30T16:32:31.074Z,14.84
2022-10-30T16:34:59.387Z,14.77
2022-10-30T16:37:38.541Z,14.76
2022-10-30T16:40:15.053Z,14.77
2022-10-30T16:42:45.159Z,14.79
2022-10-30T16:45:11.756Z,14.75
2022-10-30T16:47:45.849Z,14.78
2022-10-30T16:50:15.577Z,14.91
2022-10-30T16:52:43.506Z,14.93
2022-10-30T16:55:20.001Z,15.02
2022-10-30T16:57:52.548Z,15.14
2022-10-30T17:00:24.287Z,15.16
2022-10-30T17:02:55.744Z,15.24
2022-10-30T17:05:27.426Z,15.34
2022-10-30T17:07:59.597Z,15.41
2022-10-30T17:10:42.284Z,15.44
2022-10-30T17:13:33.831Z,15.51
2022-10-30T17:16:24.796Z,15.53
2022-10-30T17:18:53.262Z,15.55
2022-10-30T17:21:40.870Z,15.55
2022-10-30T17:24:20.584Z,15.56
2022-10-30T17:26:56.312Z,15.56
2022-10-30T17:29:38.142Z,15.56
2022-10-30T17:32:14.829Z,15.56
2022-10-30T17:34:41.384Z,15.55
2022-10-30T17:37:07.912Z,15.52
2022-10-30T17:39:34.425Z,15.50
2022-10-30T17:42:01.006Z,15.47
2022-10-30T17:44:30.722Z,15.49
2022-10-30T17:46:57.265Z,15.40
2022-10-30T17:49:28.088Z,15.36
2022-10-30T17:51:54.690Z,15.35
2022-10-30T17:54:21.493Z,15.36
2022-10-30T17:56:48.155Z,15.27
2022-10-30T17:59:14.862Z,15.21
2022-10-30T18:01:42.156Z,15.19
2022-10-30T18:04:19.598Z,15.20
2022-10-30T18:06:48.356Z,15.19
2022-10-30T18:09:14.975Z,15.08
2022-10-30T18:11:41.718Z,15.04
2022-10-30T18:14:10.571Z,15.06
2022-10-30T18:16:37.191Z,15.03
2022-10-30T18:19:03.689Z,15.00
2022-10-30T18:21:31.388Z,14.97
2022-10-30T18:23:58.103Z,14.93
2022-10-30T18:26:26.785Z,14.94
2022-10-30T18:28:54.622Z,14.91
2022-10-30T18:31:23.755Z,14.88
2022-10-30T18:33:51.040Z,14.84
2022-10-30T18:36:20.321Z,14.81
2022-10-30T18:38:47.318Z,14.76
2022-10-30T18:41:33.736Z,14.72
2022-10-30T18:44:01.252Z,14.71
2022-10-30T18:46:30.546Z,14.69
2022-10-30T18:48:57.686Z,14.66
2022-10-30T18:51:27.537Z,14.61
2022-10-30T18:53:55.124Z,14.59
2022-10-30T18:56:30.061Z,14.51
2022-10-30T18:59:01.980Z,14.47
2022-10-30T19:01:32.139Z,14.43
2022-10-30T19:04:03.870Z,14.43
2022-10-30T19:06:30.939Z,14.40
2022-10-30T19:08:57.464Z,14.37
2022-10-30T19:11:25.369Z,14.27
2022-10-30T19:13:52.495Z,14.23
2022-10-30T19:16:20.136Z,14.21
2022-10-30T19:18:47.530Z,14.17
2022-10-30T19:21:22.021Z,14.09
2022-10-30T19:23:48.985Z,14.04
2022-10-30T19:26:16.264Z,14.00
2022-10-30T19:28:43.501Z,13.88
2022-10-30T19:31:18.190Z,13.79
2022-10-30T19:33:45.765Z,13.79
2022-10-30T19:36:33.952Z,13.82
2022-10-30T19:39:07.276Z,13.79
2022-10-30T19:41:35.551Z,13.79
2022-10-30T19:44:02.075Z,13.77
2022-10-30T19:46:28.885Z,13.75
2022-10-30T19:48:57.711Z,13.69
2022-10-30T19:51:24.767Z,13.70
2022-10-30T19:53:53.174Z,13.65
2022-10-30T19:56:21.815Z,13.61
2022-10-30T19:58:49.016Z,13.59
2022-10-30T20:01:16.162Z,13.54
2022-10-30T20:03:43.042Z,13.48
2022-10-30T20:06:12.239Z,13.39
2022-10-30T20:08:38.806Z,13.36
2022-10-30T20:11:05.679Z,13.31
2022-10-30T20:13:33.438Z,13.27
2022-10-30T20:16:02.639Z,13.24
2022-10-30T20:18:31.904Z,13.19
2022-10-30T20:21:00.779Z,13.15
2022-10-30T20:23:28.066Z,13.09
2022-10-30T20:26:00.319Z,13.02
2022-10-30T20:28:38.527Z,13.00
2022-10-30T20:31:07.155Z,12.98
2022-10-30T20:33:34.874Z,12.94
2022-10-30T20:36:01.760Z,12.92
2022-10-30T20:38:32.961Z,12.86
2022-10-30T20:41:01.476Z,12.83
2022-10-30T20:43:32.785Z,12.80
2022-10-30T20:46:00.766Z,12.76
2022-10-30T20:48:27.942Z,12.74
2022-10-30T20:50:56.408Z,12.70
2022-10-30T20:53:23.184Z,12.68
2022-10-30T20:55:49.703Z,12.62
2022-10-30T20:58:16.642Z,12.56
2022-10-30T21:00:43.944Z,12.57
2022-10-30T21:03:14.414Z,12.53
2022-10-30T21:05:44.266Z,12.48
2022-10-30T21:08:12.406Z,12.45
2022-10-30T21:10:39.825Z,12.39
2022-10-30T21:13:09.331Z,12.39
2022-10-30T21:15:41.503Z,12.37
2022-10-30T21:18:09.322Z,12.34
2022-10-30T21:20:36.781Z,12.33
2022-10-30T21:23:03.841Z,12.28
2022-10-30T21:25:32.250Z,12.26
2022-10-30T21:27:59.124Z,12.22
2022-10-30T21:30:25.888Z,12.21
2022-10-30T21:32:52.877Z,12.17
2022-10-30T21:35:20.218Z,12.15
2022-10-30T21:37:46.757Z,12.13
2022-10-30T21:40:13.615Z,12.07
2022-10-30T21:42:40.157Z,12.01
2022-10-30T21:45:07.423Z,11.96
2022-10-30T21:47:33.965Z,11.92
2022-10-30T21:50:00.474Z,11.91
2022-10-30T21:52:27.181Z,11.88
2022-10-30T21:54:53.703Z,11.85
2022-10-30T21:57:20.231Z,11.85
2022-10-30T21:59:46.769Z,11.83
2022-10-30T22:02:15.293Z,11.78
2022-10-30T22:04:41.989Z,11.74
2022-10-30T22:07:08.764Z,11.72
2022-10-30T22:09:35.782Z,11.67
2022-10-30T22:12:02.918Z,11.63
2022-10-30T22:14:29.531Z,11.59
2022-10-30T22:16:56.339Z,11.55
2022-10-30T22:19:22.870Z,11.52
2022-10-30T22:21:49.445Z,11.52
2022-10-30T22:24:17.452Z,11.48
2022-10-30T22:26:44.025Z,11.49
2022-10-30T22:29:11.566Z,11.47
2022-10-30T22:31:38.725Z,11.42
2022-10-30T22:34:05.283Z,11.42
2022-10-30T22:36:33.484Z,11.41
2022-10-30T22:39:12.644Z,11.35
2022-10-30T22:41:39.842Z,11.34
2022-10-30T22:44:08.752Z,11.33
2022-10-30T22:46:36.212Z,11.29
2022-10-30T22:49:03.118Z,11.27
2022-10-30T22:51:32.718Z,11.26
2022-10-30T22:54:01.559Z,11.26
2022-10-30T22:56:31.189Z,11.25
2022-10-30T22:59:00.263Z,11.26
2022-10-30T23:01:29.229Z,11.25
2022-10-30T23:03:57.206Z,11.24
2022-10-30T23:06:23.978Z,11.21
2022-10-30T23:08:52.483Z,11.18
2022-10-30T23:11:19.157Z,11.17
2022-10-30T23:13:46.015Z,11.16
2022-10-30T23:16:21.420Z,11.13
2022-10-30T23:18:49.735Z,11.11
2022-10-30T23:21:19.530Z,11.12
2022-10-30T23:23:46.273Z,11.11
2022-10-30T23:26:21.233Z,11.11
2022-10-30T23:28:49.003Z,11.13
2022-10-30T23:31:25.305Z,11.15
2022-10-30T23:33:53.960Z,11.16
2022-10-30T23:36:20.749Z,11.19
2022-10-30T23:38:53.866Z,11.22
2022-10-30T23:41:21.573Z,11.24
2022-10-30T23:43:48.240Z,11.27
2022-10-30T23:46:14.789Z,11.28
2022-10-30T23:48:41.339Z,11.29
2022-10-30T23:51:08.696Z,11.29
2022-10-30T23:53:35.414Z,11.30
2022-10-30T23:56:02.560Z,11.31
2022-10-30T23:58:29.132Z,11.31
